Time;durP1;ratioP1;P1;durP2;ratioP2;P2;SDS_P1;SDS_P2;PMS_P1;PMS_P2;Temp;Humidity;BMP_temperature;BMP_pressure;BME280_temperature;BME280_humidity;BME280_pressure;Samples;Min_cycle;Max_cycle;Signal;HPM_P1;HPM_P2
2021/08/19 00:00:02;;;;;;;18.27;7.07;;;;;;;;;;6123025;23;20286;-93
2021/08/19 00:03:09;;;;;;;18.40;7.13;;;;;;;;;;6138040;23;20661;-92
2021/08/19 00:06:14;;;;;;;21.08;7.63;;;;;;;;;;6120509;23;20258;-93
2021/08/19 00:09:20;;;;;;;19.15;7.28;;;;;;;;;;6128112;23;20166;-92
2021/08/19 00:12:27;;;;;;;17.60;7.30;;;;;;;;;;6128401;23;20169;-92
2021/08/19 00:15:33;;;;;;;16.80;7.00;;;;;;;;;;6123237;23;20249;-92
2021/08/19 00:18:39;;;;;;;17.58;7.30;;;;;;;;;;6119380;23;20517;-92
2021/08/19 00:21:44;;;;;;;17.35;6.55;;;;;;;;;;6119725;23;20158;-92
2021/08/19 00:24:49;;;;;;;19.92;7.95;;;;;;;;;;6123100;23;20174;-91
2021/08/19 00:27:56;;;;;;;17.95;7.70;;;;;;;;;;6119302;23;20197;-93
2021/08/19 00:31:02;;;;;;;17.42;6.95;;;;;;;;;;6122484;23;20165;-92
2021/08/19 00:34:07;;;;;;;16.58;7.45;;;;;;;;;;6137283;23;20209;-91
2021/08/19 00:37:12;;;;;;;17.27;7.22;;;;;;;;;;6121468;23;20244;-91
2021/08/19 00:40:18;;;;;;;16.17;7.32;;;;;;;;;;6121204;23;20309;-93
2021/08/19 00:43:24;;;;;;;15.70;6.57;;;;;;;;;;6122419;23;20174;-92
2021/08/19 00:46:30;;;;;;;16.98;7.25;;;;;;;;;;6122733;23;20169;-92
2021/08/19 00:49:36;;;;;;;19.38;6.97;;;;;;;;;;6120249;23;20172;-92
2021/08/19 00:52:41;;;;;;;17.15;6.75;;;;;;;;;;6119704;23;20170;-89
2021/08/19 00:55:46;;;;;;;18.77;7.00;;;;;;;;;;6120278;23;20237;-93
2021/08/19 00:58:53;;;;;;;17.88;7.00;;;;;;;;;;6122506;23;20170;-91
2021/08/19 01:01:58;;;;;;;17.15;7.35;;;;;;;;;;6120588;23;20237;-91
2021/08/19 01:05:05;;;;;;;18.25;7.38;;;;;;;;;;6120375;23;20168;-91
2021/08/19 01:08:10;;;;;;;20.10;7.57;;;;;;;;;;6119224;23;20216;-91
2021/08/19 01:11:16;;;;;;;17.25;7.53;;;;;;;;;;6122293;23;20223;-91
2021/08/19 01:14:22;;;;;;;18.33;7.90;;;;;;;;;;6121674;23;20176;-92
2021/08/19 01:17:27;;;;;;;15.48;7.43;;;;;;;;;;6121067;23;20172;-92
2021/08/19 01:20:34;;;;;;;17.25;7.60;;;;;;;;;;6119646;23;20172;-92
2021/08/19 01:23:40;;;;;;;17.33;7.35;;;;;;;;;;6120862;23;20157;-90
2021/08/19 01:26:45;;;;;;;20.98;7.30;;;;;;;;;;6119501;23;20272;-92
2021/08/19 01:29:53;;;;;;;21.38;7.65;;;;;;;;;;6122414;23;20601;-91
2021/08/19 01:32:57;;;;;;;21.75;7.35;;;;;;;;;;6120469;23;20620;-94
2021/08/19 01:36:03;;;;;;;17.92;7.78;;;;;;;;;;6121158;23;20173;-92
2021/08/19 01:39:08;;;;;;;19.67;7.97;;;;;;;;;;6121713;23;20173;-92
2021/08/19 01:42:14;;;;;;;24.67;7.47;;;;;;;;;;6120132;23;20505;-93
2021/08/19 01:45:21;;;;;;;19.17;7.55;;;;;;;;;;6119685;23;20173;-92
2021/08/19 01:48:27;;;;;;;19.10;7.10;;;;;;;;;;6118463;23;20664;-91
2021/08/19 01:51:33;;;;;;;19.00;7.38;;;;;;;;;;6120411;23;20170;-92
2021/08/19 01:54:39;;;;;;;14.23;6.32;;;;;;;;;;6120273;23;20169;-92
2021/08/19 01:57:44;;;;;;;21.92;7.65;;;;;;;;;;6121058;23;20169;-92
2021/08/19 02:00:51;;;;;;;22.80;7.95;;;;;;;;;;6120457;23;20205;-93
2021/08/19 02:03:57;;;;;;;18.92;7.10;;;;;;;;;;6121318;23;20173;-93
2021/08/19 02:07:02;;;;;;;16.42;8.02;;;;;;;;;;6121552;23;20192;-92
2021/08/19 02:10:08;;;;;;;22.77;7.68;;;;;;;;;;6137279;23;20201;-92
2021/08/19 02:13:13;;;;;;;14.40;6.47;;;;;;;;;;6122139;23;20161;-91
2021/08/19 02:16:22;;;;;;;20.40;7.38;;;;;;;;;;6121916;23;20246;-93
2021/08/19 02:19:27;;;;;;;19.33;7.70;;;;;;;;;;6122997;23;20260;-93
2021/08/19 02:22:32;;;;;;;18.15;7.22;;;;;;;;;;6122297;23;20169;-92
2021/08/19 02:25:36;;;;;;;14.68;6.78;;;;;;;;;;6125006;23;20209;-92
2021/08/19 02:28:41;;;;;;;13.95;6.22;;;;;;;;;;6122111;23;20648;-92
2021/08/19 02:31:49;;;;;;;16.77;7.30;;;;;;;;;;6123843;23;20173;-92
2021/08/19 02:34:55;;;;;;;15.45;7.32;;;;;;;;;;6124225;23;20173;-92
2021/08/19 02:38:05;;;;;;;16.50;7.20;;;;;;;;;;6123984;23;20293;-93
2021/08/19 02:41:09;;;;;;;21.77;8.35;;;;;;;;;;6121893;23;20239;-92
2021/08/19 02:44:15;;;;;;;17.70;7.72;;;;;;;;;;6122494;23;20281;-92
2021/08/19 02:47:23;;;;;;;19.88;8.65;;;;;;;;;;6122978;23;20221;-94
2021/08/19 02:50:28;;;;;;;17.92;7.93;;;;;;;;;;6123413;23;20168;-92
2021/08/19 02:53:34;;;;;;;29.67;8.43;;;;;;;;;;6123808;23;20185;-93
2021/08/19 02:56:40;;;;;;;20.73;8.38;;;;;;;;;;6122314;23;20237;-92
2021/08/19 02:59:46;;;;;;;20.88;8.05;;;;;;;;;;6120503;23;20178;-92
2021/08/19 03:02:52;;;;;;;25.25;8.73;;;;;;;;;;6120150;23;20156;-92
2021/08/19 03:05:58;;;;;;;23.05;8.77;;;;;;;;;;6120810;23;20156;-93
2021/08/19 03:09:02;;;;;;;18.52;8.68;;;;;;;;;;6120874;23;20197;-93
2021/08/19 03:12:09;;;;;;;16.80;7.43;;;;;;;;;;6120646;23;20293;-93
2021/08/19 03:15:14;;;;;;;20.02;9.15;;;;;;;;;;6121381;23;20215;-92
2021/08/19 03:18:21;;;;;;;17.48;7.43;;;;;;;;;;6119827;23;20169;-93
2021/08/19 03:21:26;;;;;;;16.17;7.10;;;;;;;;;;6121378;23;20168;-93
2021/08/19 03:24:32;;;;;;;20.73;7.28;;;;;;;;;;6121849;23;20169;-92
2021/08/19 03:27:38;;;;;;;14.63;7.28;;;;;;;;;;6121579;23;20192;-92
2021/08/19 03:30:43;;;;;;;15.82;7.00;;;;;;;;;;6121012;23;20616;-92
2021/08/19 03:33:49;;;;;;;19.67;7.32;;;;;;;;;;6118680;23;20169;-92
2021/08/19 03:36:55;;;;;;;17.33;7.20;;;;;;;;;;6124186;23;20165;-91
2021/08/19 03:40:00;;;;;;;17.73;7.47;;;;;;;;;;6119289;23;20169;-92
2021/08/19 03:43:05;;;;;;;19.63;7.20;;;;;;;;;;6119200;23;20238;-93
2021/08/19 03:46:10;;;;;;;19.30;7.53;;;;;;;;;;6135893;23;20172;-92
2021/08/19 03:49:16;;;;;;;15.73;7.03;;;;;;;;;;6119945;23;20196;-92
2021/08/19 03:52:21;;;;;;;22.85;7.50;;;;;;;;;;6118108;23;20181;-93
2021/08/19 03:55:27;;;;;;;21.30;7.75;;;;;;;;;;6117862;23;20158;-91
2021/08/19 03:58:32;;;;;;;16.88;7.38;;;;;;;;;;6119243;23;20181;-91
2021/08/19 04:05:58;;;;;;;18.25;7.47;;;;;;;;;;6136400;23;20137;-91
2021/08/19 04:09:03;;;;;;;21.58;7.38;;;;;;;;;;6119903;23;20197;-92
2021/08/19 04:15:52;;;;;;;21.05;7.65;;;;;;;;;;6121089;23;20272;-92
2021/08/19 04:19:00;;;;;;;16.35;7.47;;;;;;;;;;6120422;23;20168;-93
2021/08/19 04:22:07;;;;;;;21.05;7.65;;;;;;;;;;6137180;23;20173;-93
2021/08/19 04:25:13;;;;;;;15.55;7.03;;;;;;;;;;6122278;23;20608;-93
2021/08/19 04:28:19;;;;;;;21.33;8.00;;;;;;;;;;6119512;23;20197;-92
2021/08/19 04:31:24;;;;;;;17.35;7.40;;;;;;;;;;6119198;23;20212;-93
2021/08/19 04:34:29;;;;;;;20.08;7.20;;;;;;;;;;6120481;23;20172;-92
2021/08/19 04:37:35;;;;;;;21.25;7.72;;;;;;;;;;6119281;23;20181;-92
2021/08/19 04:40:40;;;;;;;20.30;7.80;;;;;;;;;;6121128;23;20157;-92
2021/08/19 04:43:45;;;;;;;20.10;7.63;;;;;;;;;;6121646;23;20232;-92
2021/08/19 04:46:50;;;;;;;21.35;7.80;;;;;;;;;;6122472;23;20169;-93
2021/08/19 04:49:55;;;;;;;16.85;7.95;;;;;;;;;;6120175;23;20173;-92
2021/08/19 04:53:02;;;;;;;16.80;7.20;;;;;;;;;;6119570;23;20245;-91
2021/08/19 04:56:07;;;;;;;20.95;7.50;;;;;;;;;;6119672;23;20185;-93
2021/08/19 04:59:12;;;;;;;19.50;7.88;;;;;;;;;;6120609;23;20181;-92
2021/08/19 05:02:17;;;;;;;16.27;7.47;;;;;;;;;;6119272;23;20200;-93
2021/08/19 05:05:22;;;;;;;21.00;8.20;;;;;;;;;;6120191;23;20169;-91
2021/08/19 05:08:28;;;;;;;23.40;7.72;;;;;;;;;;6118367;23;20177;-93
2021/08/19 05:11:34;;;;;;;16.25;7.20;;;;;;;;;;6119219;23;20501;-91
2021/08/19 05:14:39;;;;;;;15.18;7.18;;;;;;;;;;6119196;23;20169;-91
2021/08/19 05:17:44;;;;;;;17.58;7.72;;;;;;;;;;6120834;23;20169;-93
2021/08/19 05:20:49;;;;;;;15.43;7.43;;;;;;;;;;6121212;23;20274;-92
2021/08/19 05:23:56;;;;;;;23.02;8.07;;;;;;;;;;6127237;23;20190;-91
2021/08/19 05:27:08;;;;;;;18.48;7.60;;;;;;;;;;6122626;23;20258;-92
2021/08/19 05:30:15;;;;;;;22.05;7.65;;;;;;;;;;6121433;23;20176;-92
2021/08/19 05:33:20;;;;;;;25.88;9.25;;;;;;;;;;6123507;23;20193;-92
2021/08/19 05:36:25;;;;;;;19.75;8.10;;;;;;;;;;6122384;23;20165;-91
2021/08/19 05:39:32;;;;;;;19.42;7.90;;;;;;;;;;6139870;23;20347;-92
2021/08/19 05:42:37;;;;;;;19.80;7.95;;;;;;;;;;6122663;23;20261;-92
2021/08/19 05:45:42;;;;;;;21.05;8.48;;;;;;;;;;6120318;23;20169;-92
2021/08/19 05:48:47;;;;;;;22.13;8.20;;;;;;;;;;6123095;23;20517;-92
2021/08/19 05:51:53;;;;;;;23.17;8.68;;;;;;;;;;6138610;23;20169;-93
2021/08/19 05:55:01;;;;;;;20.67;9.02;;;;;;;;;;6121154;23;20165;-92
2021/08/19 05:58:06;;;;;;;20.60;8.52;;;;;;;;;;6139661;23;20239;-92
2021/08/19 06:01:11;;;;;;;25.10;8.07;;;;;;;;;;6121020;23;20263;-91
2021/08/19 06:04:16;;;;;;;20.83;7.93;;;;;;;;;;6124903;23;20217;-92
2021/08/19 06:07:21;;;;;;;21.25;8.63;;;;;;;;;;6124722;23;20164;-93
2021/08/19 06:10:27;;;;;;;18.30;8.80;;;;;;;;;;6123501;23;20281;-92
2021/08/19 06:13:33;;;;;;;22.92;8.98;;;;;;;;;;6108337;23;20161;-93
2021/08/19 06:16:39;;;;;;;19.10;7.95;;;;;;;;;;6124988;23;20313;-92
2021/08/19 06:19:44;;;;;;;22.40;8.65;;;;;;;;;;6126231;23;20196;-94
2021/08/19 06:22:51;;;;;;;22.52;8.30;;;;;;;;;;6121372;23;20169;-91
2021/08/19 06:25:57;;;;;;;19.83;8.52;;;;;;;;;;6119967;23;20181;-92
2021/08/19 06:29:02;;;;;;;26.90;9.32;;;;;;;;;;6119535;23;20778;-92
2021/08/19 06:32:07;;;;;;;21.85;8.63;;;;;;;;;;6119566;23;20224;-92
2021/08/19 06:35:13;;;;;;;20.35;7.63;;;;;;;;;;6122044;23;20165;-91
2021/08/19 06:38:19;;;;;;;17.60;8.30;;;;;;;;;;6121321;23;20177;-92
2021/08/19 06:41:29;;;;;;;23.98;7.90;;;;;;;;;;6124840;23;20198;-93
2021/08/19 06:44:34;;;;;;;19.92;8.00;;;;;;;;;;6125683;23;20169;-93
2021/08/19 06:47:40;;;;;;;21.83;8.45;;;;;;;;;;6126673;23;20169;-93
2021/08/19 06:50:45;;;;;;;20.60;7.32;;;;;;;;;;6125549;23;20549;-93
2021/08/19 06:53:50;;;;;;;26.98;8.70;;;;;;;;;;6125165;23;20244;-93
2021/08/19 06:57:00;;;;;;;19.60;7.68;;;;;;;;;;6125953;23;20176;-93
2021/08/19 07:00:06;;;;;;;23.10;8.30;;;;;;;;;;6123904;23;20264;-92
2021/08/19 07:03:14;;;;;;;22.00;7.47;;;;;;;;;;6118759;23;20197;-90
2021/08/19 07:06:19;;;;;;;23.23;8.68;;;;;;;;;;6124250;23;20173;-91
2021/08/19 07:09:24;;;;;;;19.85;7.88;;;;;;;;;;6127090;23;20237;-90
2021/08/19 07:12:30;;;;;;;23.77;7.75;;;;;;;;;;6109558;23;20181;-90
2021/08/19 07:15:35;;;;;;;18.40;8.20;;;;;;;;;;6124225;23;20231;-90
2021/08/19 07:18:40;;;;;;;21.20;9.23;;;;;;;;;;6123780;23;20227;-91
2021/08/19 07:21:46;;;;;;;17.55;7.63;;;;;;;;;;6124551;23;20273;-91
2021/08/19 07:24:51;;;;;;;22.52;8.10;;;;;;;;;;6123641;23;20545;-90
2021/08/19 07:27:58;;;;;;;20.98;8.63;;;;;;;;;;6123959;23;20686;-91
2021/08/19 07:31:03;;;;;;;19.30;7.68;;;;;;;;;;6123680;23;20170;-92
2021/08/19 07:34:08;;;;;;;17.90;7.25;;;;;;;;;;6145539;23;20169;-91
2021/08/19 07:37:14;;;;;;;19.15;7.75;;;;;;;;;;6126074;23;20191;-91
2021/08/19 07:40:20;;;;;;;15.00;7.38;;;;;;;;;;6123462;23;20176;-92
2021/08/19 07:43:26;;;;;;;19.88;7.22;;;;;;;;;;6124178;23;20214;-92
2021/08/19 07:46:34;;;;;;;19.83;7.72;;;;;;;;;;6124757;23;20260;-92
2021/08/19 07:49:40;;;;;;;22.05;7.80;;;;;;;;;;6127166;23;20173;-92
2021/08/19 07:52:47;;;;;;;13.45;7.10;;;;;;;;;;6126080;23;20168;-92
2021/08/19 07:55:53;;;;;;;15.85;7.35;;;;;;;;;;6124676;23;20206;-92
2021/08/19 07:59:02;;;;;;;18.80;8.00;;;;;;;;;;6127816;23;20181;-91
2021/08/19 08:02:10;;;;;;;14.77;6.68;;;;;;;;;;6124209;23;20640;-93
2021/08/19 08:05:17;;;;;;;17.88;8.10;;;;;;;;;;6122771;23;20397;-92
2021/08/19 08:08:23;;;;;;;15.43;7.90;;;;;;;;;;6122112;23;20168;-92
2021/08/19 08:11:32;;;;;;;13.40;6.88;;;;;;;;;;6123259;23;20173;-93
2021/08/19 08:14:42;;;;;;;13.35;6.85;;;;;;;;;;6120359;23;20165;-92
2021/08/19 08:17:47;;;;;;;16.60;7.57;;;;;;;;;;6121300;23;20504;-92
2021/08/19 08:20:57;;;;;;;13.95;6.72;;;;;;;;;;6118464;23;20616;-92
2021/08/19 08:24:04;;;;;;;14.95;7.15;;;;;;;;;;6121629;23;20245;-92
2021/08/19 08:27:09;;;;;;;14.93;7.28;;;;;;;;;;6121503;23;20312;-92
2021/08/19 08:30:17;;;;;;;15.38;6.65;;;;;;;;;;6119717;23;20195;-91
2021/08/19 08:33:23;;;;;;;13.52;7.28;;;;;;;;;;6119730;23;20733;-91
2021/08/19 08:36:28;;;;;;;14.77;6.60;;;;;;;;;;6121509;23;20260;-92
2021/08/19 08:39:37;;;;;;;14.48;6.30;;;;;;;;;;6119326;23;20190;-91
2021/08/19 08:42:42;;;;;;;13.75;6.05;;;;;;;;;;6119846;23;20189;-93
2021/08/19 08:45:50;;;;;;;12.27;6.15;;;;;;;;;;6123364;23;20239;-92
2021/08/19 08:48:58;;;;;;;13.10;5.25;;;;;;;;;;6126962;23;20222;-93
2021/08/19 08:52:05;;;;;;;11.07;5.38;;;;;;;;;;6127672;23;20204;-91
2021/08/19 08:55:11;;;;;;;12.63;5.68;;;;;;;;;;6124912;23;20157;-91
2021/08/19 08:58:18;;;;;;;8.05;4.80;;;;;;;;;;6128783;23;20168;-91
2021/08/19 09:01:27;;;;;;;12.68;5.03;;;;;;;;;;6121650;23;20193;-91
2021/08/19 09:04:34;;;;;;;10.68;5.25;;;;;;;;;;6122370;23;20242;-91
2021/08/19 09:07:38;;;;;;;10.50;4.63;;;;;;;;;;6122959;23;20168;-92
2021/08/19 09:10:44;;;;;;;14.25;4.38;;;;;;;;;;6122205;23;20193;-92
2021/08/19 09:13:50;;;;;;;7.50;3.70;;;;;;;;;;6122861;23;20172;-92
2021/08/19 09:16:57;;;;;;;11.75;3.70;;;;;;;;;;6120612;23;20168;-93
2021/08/19 09:20:07;;;;;;;9.52;3.72;;;;;;;;;;6122657;23;20572;-93
2021/08/19 09:23:13;;;;;;;7.15;3.65;;;;;;;;;;6123580;23;20157;-91
2021/08/19 09:26:27;;;;;;;7.43;3.60;;;;;;;;;;6109362;23;20209;-91
2021/08/19 09:29:32;;;;;;;6.13;3.22;;;;;;;;;;6138636;23;20641;-91
2021/08/19 09:32:39;;;;;;;6.57;3.10;;;;;;;;;;6119824;23;20161;-90
2021/08/19 09:35:48;;;;;;;6.53;2.85;;;;;;;;;;6119637;23;20217;-91
2021/08/19 09:38:55;;;;;;;5.32;2.88;;;;;;;;;;6122633;23;20184;-91
2021/08/19 09:42:01;;;;;;;11.38;3.08;;;;;;;;;;6119747;23;20165;-91
2021/08/19 09:45:18;;;;;;;6.40;2.80;;;;;;;;;;6124324;23;20169;-91
2021/08/19 09:48:30;;;;;;;5.57;2.60;;;;;;;;;;6124100;23;20221;-91
2021/08/19 09:51:35;;;;;;;4.47;2.60;;;;;;;;;;6125076;23;20169;-92
2021/08/19 10:56:51;;;;;;;4.40;2.60;;;;;;;;;;6146900;23;20198;-91
2021/08/19 10:59:57;;;;;;;3.47;2.22;;;;;;;;;;6146900;23;20169;-92
2021/08/19 11:03:10;;;;;;;10.23;2.70;;;;;;;;;;6149977;23;20190;-91
2021/08/19 11:06:17;;;;;;;7.85;2.30;;;;;;;;;;6148728;23;20172;-92
2021/08/19 11:09:24;;;;;;;9.05;2.33;;;;;;;;;;6146421;23;20201;-92
2021/08/19 11:12:36;;;;;;;8.48;2.30;;;;;;;;;;6160788;23;20172;-91
2021/08/19 11:15:48;;;;;;;6.63;2.20;;;;;;;;;;6146692;23;20169;-91
2021/08/19 11:18:54;;;;;;;5.30;2.25;;;;;;;;;;6147314;23;20223;-91
2021/08/19 11:22:04;;;;;;;4.05;2.38;;;;;;;;;;6145018;23;20173;-91
2021/08/19 11:25:10;;;;;;;3.15;2.30;;;;;;;;;;6140135;23;20173;-89
2021/08/19 11:28:17;;;;;;;5.35;2.50;;;;;;;;;;6134064;23;20644;-89
2021/08/19 11:31:24;;;;;;;3.15;1.92;;;;;;;;;;6133373;23;20177;-90
2021/08/19 11:34:29;;;;;;;6.78;2.10;;;;;;;;;;6135598;23;20180;-89
2021/08/19 11:37:36;;;;;;;3.35;1.55;;;;;;;;;;6140224;23;20297;-89
2021/08/19 11:40:42;;;;;;;2.47;1.63;;;;;;;;;;6145369;23;20181;-90
2021/08/19 11:43:51;;;;;;;3.33;1.60;;;;;;;;;;6138302;23;20169;-89
2021/08/19 11:47:04;;;;;;;4.30;1.70;;;;;;;;;;6139832;23;20169;-92
2021/08/19 11:50:10;;;;;;;2.72;1.40;;;;;;;;;;6138355;23;20305;-89
2021/08/19 11:53:15;;;;;;;2.97;1.80;;;;;;;;;;6139087;23;20248;-89
2021/08/19 11:56:21;;;;;;;3.58;1.48;;;;;;;;;;6145390;23;20173;-89
2021/08/19 11:59:27;;;;;;;2.72;1.73;;;;;;;;;;6136733;23;20169;-89
2021/08/19 12:02:32;;;;;;;2.30;1.52;;;;;;;;;;6136496;23;20164;-90
2021/08/19 12:05:37;;;;;;;3.70;1.45;;;;;;;;;;6155458;23;20201;-89
2021/08/19 12:08:47;;;;;;;4.80;1.67;;;;;;;;;;6140504;23;20336;-89
2021/08/19 12:11:53;;;;;;;2.65;1.70;;;;;;;;;;6138763;23;20221;-90
2021/08/19 12:15:00;;;;;;;2.90;1.40;;;;;;;;;;6137857;23;20173;-90
2021/08/19 12:18:06;;;;;;;1.98;1.30;;;;;;;;;;6137788;23;20351;-88
2021/08/19 12:21:16;;;;;;;3.22;1.50;;;;;;;;;;6155249;23;20218;-89
2021/08/19 12:24:22;;;;;;;2.17;1.38;;;;;;;;;;6138981;23;20169;-89
2021/08/19 12:27:27;;;;;;;1.88;1.30;;;;;;;;;;6138977;23;20218;-90
2021/08/19 12:30:55;;;;;;;3.05;1.40;;;;;;;;;;6142221;23;20201;-90
2021/08/19 12:34:05;;;;;;;4.25;1.58;;;;;;;;;;6137623;23;20176;-90
2021/08/19 12:37:11;;;;;;;1.85;1.30;;;;;;;;;;6155803;23;20227;-90
2021/08/19 12:40:17;;;;;;;2.28;1.42;;;;;;;;;;6137518;23;20297;-89
2021/08/19 12:43:26;;;;;;;4.53;1.38;;;;;;;;;;6139574;23;20252;-91
2021/08/19 12:46:37;;;;;;;2.75;1.38;;;;;;;;;;6156644;23;20232;-90
2021/08/19 12:49:44;;;;;;;2.13;1.17;;;;;;;;;;6138365;23;20193;-89
2021/08/19 12:52:49;;;;;;;2.13;1.30;;;;;;;;;;6137743;23;20168;-89
2021/08/19 12:55:57;;;;;;;3.75;1.80;;;;;;;;;;6141395;23;20664;-91
2021/08/19 12:59:02;;;;;;;1.90;1.45;;;;;;;;;;6155722;23;20177;-91
2021/08/19 13:02:07;;;;;;;2.45;1.70;;;;;;;;;;6140947;23;20265;-90
2021/08/19 13:05:24;;;;;;;4.40;2.22;;;;;;;;;;6156424;23;20246;-92
2021/08/19 13:08:31;;;;;;;2.92;1.50;;;;;;;;;;6138523;23;20173;-91
2021/08/19 13:11:36;;;;;;;3.15;1.60;;;;;;;;;;6140862;23;20206;-92
2021/08/19 13:18:01;;;;;;;2.00;1.42;;;;;;;;;;6135613;23;20197;-92
2021/08/19 13:21:08;;;;;;;2.47;1.30;;;;;;;;;;6138210;23;20157;-91
2021/08/19 13:24:13;;;;;;;1.60;1.10;;;;;;;;;;6138570;23;20239;-91
2021/08/19 13:27:20;;;;;;;2.50;1.50;;;;;;;;;;6135763;23;20172;-90
2021/08/19 13:30:25;;;;;;;4.43;1.45;;;;;;;;;;6153309;23;20287;-91
2021/08/19 13:33:38;;;;;;;2.40;1.20;;;;;;;;;;6152057;23;20214;-90
2021/08/19 13:36:45;;;;;;;2.63;1.55;;;;;;;;;;6140259;23;20237;-90
2021/08/19 13:39:50;;;;;;;3.17;1.23;;;;;;;;;;6143598;23;20190;-90
2021/08/19 13:42:55;;;;;;;2.42;1.70;;;;;;;;;;6152531;23;20177;-91
2021/08/19 13:46:08;;;;;;;10.63;1.73;;;;;;;;;;6142259;23;20213;-92
2021/08/19 13:49:13;;;;;;;5.07;1.75;;;;;;;;;;6140053;23;20485;-90
2021/08/19 13:52:20;;;;;;;5.40;1.50;;;;;;;;;;6140411;23;20181;-91
2021/08/19 13:55:26;;;;;;;5.05;1.75;;;;;;;;;;6141459;23;20241;-92
2021/08/19 13:58:31;;;;;;;3.03;1.50;;;;;;;;;;6139294;23;20225;-92
2021/08/19 14:01:36;;;;;;;2.17;1.42;;;;;;;;;;6158089;23;20153;-90
2021/08/19 14:04:41;;;;;;;4.75;1.80;;;;;;;;;;6139061;23;20197;-91
2021/08/19 14:07:48;;;;;;;5.10;1.70;;;;;;;;;;6143990;23;20220;-89
2021/08/19 14:10:53;;;;;;;5.30;1.40;;;;;;;;;;6142235;23;20201;-91
2021/08/19 14:13:59;;;;;;;6.97;1.85;;;;;;;;;;6159480;23;20173;-90
2021/08/19 14:17:05;;;;;;;3.20;1.70;;;;;;;;;;6161318;23;20165;-91
2021/08/19 14:20:11;;;;;;;2.20;1.67;;;;;;;;;;6142015;23;20177;-91
2021/08/19 14:23:18;;;;;;;3.92;1.60;;;;;;;;;;6143363;23;20446;-90
2021/08/19 14:26:23;;;;;;;3.17;1.83;;;;;;;;;;6142703;23;20181;-90
2021/08/19 14:29:28;;;;;;;1.92;1.42;;;;;;;;;;6136557;23;20245;-92
2021/08/19 14:32:33;;;;;;;1.70;1.38;;;;;;;;;;6155348;23;20203;-90
2021/08/19 14:35:38;;;;;;;12.35;1.88;;;;;;;;;;6137125;23;20251;-89
2021/08/19 14:38:44;;;;;;;3.28;1.77;;;;;;;;;;6154125;23;20169;-91
2021/08/19 14:41:50;;;;;;;3.83;2.10;;;;;;;;;;6135258;23;20281;-91
2021/08/19 14:48:16;;;;;;;5.15;2.08;;;;;;;;;;6135423;23;20241;-89
2021/08/19 14:51:22;;;;;;;6.55;2.45;;;;;;;;;;6137337;23;20233;-89
2021/08/19 14:54:28;;;;;;;4.97;2.13;;;;;;;;;;6148266;23;20243;-91
2021/08/19 14:57:33;;;;;;;3.60;1.90;;;;;;;;;;6146902;23;20169;-90
2021/08/19 15:00:39;;;;;;;3.25;1.70;;;;;;;;;;6152065;23;20172;-90
2021/08/19 15:03:44;;;;;;;2.83;1.90;;;;;;;;;;6148344;23;20212;-91
2021/08/19 15:06:51;;;;;;;2.17;1.60;;;;;;;;;;6168232;23;20280;-91
2021/08/19 15:09:58;;;;;;;3.97;1.70;;;;;;;;;;6149728;23;20217;-91
2021/08/19 15:13:03;;;;;;;2.72;1.70;;;;;;;;;;6148055;23;20172;-89
2021/08/19 15:16:08;;;;;;;3.13;1.52;;;;;;;;;;6168225;23;20169;-90
2021/08/19 15:19:13;;;;;;;5.68;1.70;;;;;;;;;;6148141;23;20196;-90
2021/08/19 15:22:18;;;;;;;3.40;1.70;;;;;;;;;;6151579;23;20168;-90
2021/08/19 15:25:25;;;;;;;3.17;1.67;;;;;;;;;;6150515;23;20173;-90
2021/08/19 22:01:12;;;;;;;5.75;3.33;;;;;;;;;;6140472;23;20220;-88
2021/08/19 22:04:18;;;;;;;8.65;4.00;;;;;;;;;;6143512;23;20615;-90
2021/08/19 22:07:22;;;;;;;5.53;3.10;;;;;;;;;;6146010;23;20161;-90
2021/08/19 22:10:29;;;;;;;5.80;3.50;;;;;;;;;;6145640;23;20180;-89
2021/08/19 22:13:34;;;;;;;7.03;3.33;;;;;;;;;;6143728;23;20284;-91
2021/08/19 22:16:43;;;;;;;7.25;3.60;;;;;;;;;;6144916;23;20289;-89
2021/08/19 22:19:49;;;;;;;6.45;3.20;;;;;;;;;;6145241;23;20236;-89
2021/08/19 22:22:54;;;;;;;9.45;3.00;;;;;;;;;;6150988;23;20260;-89
2021/08/19 22:25:59;;;;;;;7.43;2.90;;;;;;;;;;6154698;23;20185;-89
2021/08/19 22:29:04;;;;;;;5.50;3.10;;;;;;;;;;6154148;23;20244;-90
2021/08/19 22:32:15;;;;;;;8.45;3.35;;;;;;;;;;6152090;23;20196;-90
2021/08/19 22:35:20;;;;;;;5.70;3.42;;;;;;;;;;6154130;23;20164;-90
2021/08/19 22:38:25;;;;;;;4.68;3.10;;;;;;;;;;6152188;23;20160;-89
2021/08/19 22:41:30;;;;;;;8.07;3.22;;;;;;;;;;6154412;23;20610;-90
2021/08/19 22:44:36;;;;;;;9.63;3.72;;;;;;;;;;6153157;23;20216;-91
2021/08/19 22:47:43;;;;;;;4.63;3.30;;;;;;;;;;6147916;23;20215;-90
2021/08/19 22:50:48;;;;;;;6.50;3.00;;;;;;;;;;6146519;23;20501;-89
2021/08/19 22:53:53;;;;;;;7.90;3.75;;;;;;;;;;6146462;23;20616;-90
2021/08/19 22:56:57;;;;;;;8.48;3.58;;;;;;;;;;6146417;23;20167;-89
2021/08/19 23:00:02;;;;;;;5.00;3.22;;;;;;;;;;6146679;23;20285;-89
2021/08/19 23:03:09;;;;;;;8.95;3.80;;;;;;;;;;6147295;23;20260;-89
2021/08/19 23:06:14;;;;;;;6.15;3.90;;;;;;;;;;6149524;23;20235;-88
2021/08/19 23:09:19;;;;;;;4.95;3.45;;;;;;;;;;6148920;23;20172;-89
2021/08/19 23:12:25;;;;;;;20.92;10.07;;;;;;;;;;6149887;23;20196;-93
2021/08/19 23:15:30;;;;;;;7.80;4.13;;;;;;;;;;6149540;23;20216;-90
2021/08/19 23:18:37;;;;;;;8.65;4.10;;;;;;;;;;6150067;23;20180;-90
2021/08/19 23:21:42;;;;;;;4.30;3.13;;;;;;;;;;6147451;23;20173;-90
2021/08/19 23:24:47;;;;;;;8.25;3.80;;;;;;;;;;6146101;23;20196;-92
2021/08/19 23:27:51;;;;;;;9.02;3.70;;;;;;;;;;6146359;23;20256;-91
2021/08/19 23:30:57;;;;;;;6.25;4.05;;;;;;;;;;6145629;23;20172;-90
2021/08/19 23:34:03;;;;;;;5.47;3.53;;;;;;;;;;6144935;23;20176;-89
2021/08/19 23:37:08;;;;;;;6.82;3.60;;;;;;;;;;6146096;23;20458;-90
2021/08/19 23:40:14;;;;;;;6.43;3.47;;;;;;;;;;6145323;23;20279;-90
2021/08/19 23:43:18;;;;;;;9.95;3.88;;;;;;;;;;6147011;23;20171;-90
2021/08/19 23:46:23;;;;;;;8.30;3.80;;;;;;;;;;6144637;23;20168;-89
2021/08/19 23:49:31;;;;;;;7.07;3.30;;;;;;;;;;6145065;23;20164;-91
2021/08/19 23:52:38;;;;;;;7.13;3.67;;;;;;;;;;6148251;23;20266;-90
2021/08/19 23:55:43;;;;;;;6.28;4.22;;;;;;;;;;6148027;23;20203;-90
2021/08/19 23:58:49;;;;;;;8.90;4.05;;;;;;;;;;6147872;23;20248;-90
